This is the latest recevied weather packets stored in our database for station/object KG7MRB. If no packets are shown the sender has not sent any weather packets the latest 10 day(s).
| Time | Temp. | Humidity | Pressure | Rain* | Wind** | Luminosity | Snow |
|---|---|---|---|---|---|---|---|
| 1777780353 | 16.11° C | 74% | 1032.6 hPa | 0 mm | - | 0 W/m² | - |
| 1777780050 | 16.67° C | 73% | 1032.6 hPa | 0 mm | - | 0 W/m² | - |
| 1777779747 | 16.67° C | 72% | 1032.4 hPa | 0 mm | - | 0 W/m² | - |
| 1777779444 | 17.22° C | 72% | 1032.1 hPa | 0 mm | - | 1 W/m² | - |
| 1777779141 | 17.22° C | 70% | 1032.1 hPa | 0 mm | - | 2 W/m² | - |
| 1777778840 | 17.78° C | 70% | 1032.2 hPa | 0 mm | - | 2 W/m² | - |
| 1777778538 | 17.78° C | 69% | 1032.2 hPa | 0 mm | - | 4 W/m² | - |
| 1777778235 | 18.33° C | 68% | 1032.1 hPa | 0 mm | - | 6 W/m² | - |
| 1777777933 | 18.89° C | 67% | 1032.2 hPa | 0 mm | - | 8 W/m² | - |
| 1777777629 | 18.89° C | 66% | 1032.1 hPa | 0 mm | - | 10 W/m² | - |
| 1777777325 | 19.44° C | 63% | 1032.1 hPa | 0 mm | - | 12 W/m² | - |
| 1777777022 | 20° C | 62% | 1032.1 hPa | 0 mm | - | 15 W/m² | - |
| 1777776720 | 21.11° C | 55% | 1031.9 hPa | 0 mm | - | 17 W/m² | - |
| 1777776416 | 21.67° C | 51% | 1032 hPa | 0 mm | - | 19 W/m² | - |
| 1777776114 | 22.22° C | 50% | 1031.9 hPa | 0 mm | - | 21 W/m² | - |
| 1777775811 | 22.78° C | 47% | 1031.9 hPa | 0 mm | - | 23 W/m² | - |
| 1777775507 | 22.78° C | 45% | 1031.9 hPa | 0 mm | - | 25 W/m² | - |
| 1777775203 | 22.78° C | 46% | 1031.8 hPa | 0 mm | - | 27 W/m² | - |
| 1777774903 | 23.33° C | 45% | 1032 hPa | 0 mm | - | 29 W/m² | - |
| 1777774600 | 23.89° C | 43% | 1031.8 hPa | 0 mm | - | 30 W/m² | - |
| 1777774297 | 23.89° C | 43% | 1031.7 hPa | 0 mm | - | 32 W/m² | - |
| 1777773994 | 23.89° C | 44% | 1031.9 hPa | 0 mm | - | 34 W/m² | - |
| 1777773691 | 23.89° C | 43% | 1032 hPa | 0 mm | - | 39 W/m² | - |
| 1777773388 | 23.89° C | 43% | 1031.8 hPa | 0 mm | - | 36 W/m² | - |
| 1777773085 | 23.89° C | 43% | 1031.9 hPa | 0 mm | - | 37 W/m² | - |
* Rain latest hour (hover to see other rain measurements)
** Current wind speed in m/s (hover to see current wind gust speed)